Current | Forecast
Updated: 7:00 AM JST on January 21, 2018
Observed at Kochi, Japan
Temperature 37°F
Windchill 30°F
Humidity 81%
Dew Point 32°F
Wind NW at 10 mph
Pressure 30.09 in (Rising)
Conditions Scattered Clouds
Visibility 6.2 miles
UV 0 out of 16
Clouds (FEW) : 2500 ft
Scattered Clouds (SCT) : 4000 ft
Yesterday's Maximum 55°F
Yesterday's Minimum 50°F approx.
Yesterday's Heating Degree Days 12 approx.
Sunrise7:08 AM JST
Sunset5:26 PM JST
Moon Rise9:34 AM JST
Moon Set9:14 PM JST
Moon PhaseMoon Phase
Waxing Crescent
Raw METARMETAR RJOK 202200Z 32009KT 9999 FEW025 SCT040 03/M00 Q1019


Monday
. High: 73° F.
Tuesday
. High: 80° F.
Wednesday
. High: 77° F.
Thursday
. High: 75° F.
Friday
. High: 75° F.
Saturday
. High: 82° F.
Sunday
. High: 78° F.
Monday
. High: 80° F.

Units: English | Metric

Find the Weather for any City, State or Zipcode, or Country:

U.S. State List | Severe Weather | Tropical Storms | Ski Conditions
United States | Canada | Central America | South America | Asia | Europe | Australia | Africa | Islands

Weather Underground

© Copyright 2018
The Weather Company, LLC